createdAt,value
2023-05-11T00:00:24.274Z,94954.00
2023-05-11T00:01:24.287Z,94952.00
2023-05-11T00:02:24.439Z,94950.00
2023-05-11T00:03:24.438Z,94952.00
2023-05-11T00:04:24.449Z,94952.00
2023-05-11T00:05:24.482Z,94948.00
2023-05-11T00:06:24.526Z,94948.00
2023-05-11T00:07:24.547Z,94946.00
2023-05-11T00:08:24.574Z,94948.00
2023-05-11T00:09:24.610Z,94944.00
2023-05-11T00:10:24.650Z,94944.00
2023-05-11T00:11:24.721Z,94942.00
2023-05-11T00:12:24.725Z,94942.00
2023-05-11T00:13:24.756Z,94942.00
2023-05-11T00:14:24.794Z,94936.00
2023-05-11T00:15:25.225Z,94938.00
2023-05-11T00:16:24.993Z,94938.00
2023-05-11T00:17:24.952Z,94938.00
2023-05-11T00:18:24.956Z,94938.00
2023-05-11T00:19:25.017Z,94934.00
2023-05-11T00:20:25.049Z,94934.00
2023-05-11T00:21:25.101Z,94936.00
2023-05-11T00:22:25.098Z,94942.00
2023-05-11T00:23:25.195Z,94936.00
2023-05-11T00:24:25.196Z,94936.00
2023-05-11T00:25:25.243Z,94936.00
2023-05-11T00:26:25.273Z,94932.00
2023-05-11T00:27:25.296Z,94934.00
2023-05-11T00:28:25.362Z,94932.00
2023-05-11T00:29:25.398Z,94934.00
2023-05-11T00:30:25.430Z,94934.00
2023-05-11T00:31:26.498Z,94932.00
2023-05-11T00:32:25.549Z,94932.00
2023-05-11T00:33:25.552Z,94932.00
2023-05-11T00:34:25.551Z,94932.00
2023-05-11T00:35:25.607Z,94932.00
2023-05-11T00:36:25.626Z,94934.00
2023-05-11T00:37:26.266Z,94932.00
2023-05-11T00:38:25.716Z,94932.00
2023-05-11T00:39:25.732Z,94930.00
2023-05-11T00:40:25.789Z,94930.00
2023-05-11T00:41:25.801Z,94932.00
2023-05-11T00:42:25.826Z,94928.00
2023-05-11T00:43:25.877Z,94930.00
2023-05-11T00:44:25.879Z,94928.00
2023-05-11T00:45:25.933Z,94925.00
2023-05-11T00:46:26.064Z,94928.00
2023-05-11T00:47:26.069Z,94926.00
2023-05-11T00:48:26.099Z,94928.00
2023-05-11T00:49:26.084Z,94926.00
2023-05-11T00:50:26.140Z,94928.00
2023-05-11T00:51:26.254Z,94930.00
2023-05-11T00:52:26.282Z,94930.00
2023-05-11T00:53:26.302Z,94926.00
2023-05-11T00:54:26.270Z,94926.00
2023-05-11T00:55:26.282Z,94928.00
2023-05-11T00:56:26.329Z,94928.00
2023-05-11T00:57:26.406Z,94925.00
2023-05-11T00:58:26.397Z,94925.00
2023-05-11T00:59:26.448Z,94925.00
2023-05-11T01:00:26.478Z,94926.00
2023-05-11T01:01:26.536Z,94925.00
2023-05-11T01:02:26.703Z,94926.00
2023-05-11T01:03:26.703Z,94926.00
2023-05-11T01:04:26.617Z,94926.00
2023-05-11T01:05:26.658Z,94928.00
2023-05-11T01:06:26.686Z,94925.00
2023-05-11T01:07:26.746Z,94926.00
2023-05-11T01:08:26.787Z,94926.00
2023-05-11T01:09:26.801Z,94926.00
2023-05-11T01:10:26.847Z,94928.00
2023-05-11T01:11:26.941Z,94928.00
2023-05-11T01:12:26.916Z,94930.00
2023-05-11T01:13:26.966Z,94926.00
2023-05-11T01:14:27.030Z,94928.00
2023-05-11T01:15:27.062Z,94928.00
2023-05-11T01:16:27.093Z,94926.00
2023-05-11T01:17:27.124Z,94926.00
2023-05-11T01:18:27.211Z,94926.00
2023-05-11T01:19:27.232Z,94925.00
2023-05-11T01:20:27.266Z,94919.00
2023-05-11T01:21:27.307Z,94925.00
2023-05-11T01:22:27.368Z,94923.00
2023-05-11T01:23:27.358Z,94925.00
2023-05-11T01:24:27.416Z,94925.00
2023-05-11T01:25:27.474Z,94923.00
2023-05-11T01:26:27.487Z,94926.00
2023-05-11T01:27:27.536Z,94925.00
2023-05-11T01:28:27.590Z,94925.00
2023-05-11T01:29:27.648Z,94923.00
2023-05-11T01:30:27.669Z,94919.00
2023-05-11T01:31:27.745Z,94917.00
2023-05-11T01:32:27.848Z,94915.00
2023-05-11T01:33:27.815Z,94913.00
2023-05-11T01:34:27.819Z,94913.00
2023-05-11T01:35:27.871Z,94913.00
2023-05-11T01:36:27.914Z,94915.00
2023-05-11T01:37:27.957Z,94915.00
2023-05-11T01:38:27.989Z,94913.00
2023-05-11T01:39:28.054Z,94913.00
2023-05-11T01:40:28.098Z,94915.00
2023-05-11T01:41:28.180Z,94915.00
2023-05-11T01:42:28.183Z,94915.00
2023-05-11T01:43:28.219Z,94917.00
2023-05-11T01:44:28.300Z,94917.00
2023-05-11T01:45:28.318Z,94917.00
2023-05-11T01:46:28.384Z,94915.00
2023-05-11T01:47:28.460Z,94917.00
2023-05-11T01:48:28.460Z,94917.00
2023-05-11T01:49:28.517Z,94913.00
2023-05-11T01:50:28.549Z,94913.00
2023-05-11T01:51:28.610Z,94915.00
2023-05-11T01:52:28.656Z,94911.00
2023-05-11T01:53:28.718Z,94915.00
2023-05-11T01:54:28.747Z,94917.00
2023-05-11T01:55:28.775Z,94915.00
2023-05-11T01:56:28.856Z,94917.00
2023-05-11T01:57:28.895Z,94917.00
2023-05-11T01:58:28.932Z,94917.00
2023-05-11T01:59:28.972Z,94915.00
2023-05-11T02:00:29.027Z,94917.00
2023-05-11T02:01:29.111Z,94915.00
2023-05-11T02:02:29.177Z,94915.00
2023-05-11T02:03:29.227Z,94917.00
2023-05-11T02:04:29.229Z,94915.00
2023-05-11T02:05:30.012Z,94913.00
2023-05-11T02:06:29.308Z,94915.00
2023-05-11T02:07:29.379Z,94919.00
2023-05-11T02:08:29.377Z,94919.00
2023-05-11T02:09:29.443Z,94919.00
2023-05-11T02:10:29.548Z,94917.00
2023-05-11T02:11:29.548Z,94919.00
2023-05-11T02:12:29.585Z,94917.00
2023-05-11T02:13:29.648Z,94917.00
2023-05-11T02:14:29.683Z,94917.00
2023-05-11T02:15:29.764Z,94919.00
2023-05-11T02:16:29.882Z,94915.00
2023-05-11T02:17:29.867Z,94919.00
2023-05-11T02:18:29.956Z,94917.00
2023-05-11T02:19:29.920Z,94915.00
2023-05-11T02:20:29.998Z,94917.00
2023-05-11T02:21:30.036Z,94917.00
2023-05-11T02:22:30.093Z,94917.00
2023-05-11T02:23:30.135Z,94915.00
2023-05-11T02:24:30.166Z,94915.00
2023-05-11T02:25:30.224Z,94917.00
2023-05-11T02:26:30.282Z,94917.00
2023-05-11T02:27:30.322Z,94919.00
2023-05-11T02:28:30.390Z,94917.00
2023-05-11T02:29:30.474Z,94919.00
2023-05-11T02:30:30.505Z,94917.00
2023-05-11T02:31:30.602Z,94915.00
2023-05-11T02:32:30.582Z,94915.00
2023-05-11T02:33:30.634Z,94911.00
2023-05-11T02:34:30.695Z,94913.00
2023-05-11T02:35:30.761Z,94911.00
2023-05-11T02:36:30.790Z,94911.00
2023-05-11T02:37:30.819Z,94913.00
2023-05-11T02:38:30.901Z,94913.00
2023-05-11T02:39:30.921Z,94913.00
2023-05-11T02:40:31.000Z,94915.00
2023-05-11T02:41:31.042Z,94911.00
2023-05-11T02:42:31.151Z,94913.00
2023-05-11T02:43:31.150Z,94913.00
2023-05-11T02:44:31.232Z,94911.00
2023-05-11T02:45:31.295Z,94911.00
2023-05-11T02:46:31.397Z,94907.00
2023-05-11T02:47:31.432Z,94905.00
2023-05-11T02:48:31.462Z,94905.00
2023-05-11T02:49:31.496Z,94905.00
2023-05-11T02:50:31.543Z,94903.00
2023-05-11T02:51:31.615Z,94903.00
2023-05-11T02:52:31.728Z,94905.00
2023-05-11T02:53:33.291Z,94903.00
2023-05-11T02:54:31.748Z,94903.00
2023-05-11T02:55:31.800Z,94899.00
2023-05-11T02:56:31.848Z,94899.00
2023-05-11T02:57:31.880Z,94899.00
2023-05-11T02:58:31.998Z,94897.00
2023-05-11T02:59:31.983Z,94897.00
2023-05-11T03:00:32.166Z,94895.00
2023-05-11T03:01:32.209Z,94899.00
2023-05-11T03:02:32.300Z,94895.00
2023-05-11T03:03:32.404Z,94897.00
2023-05-11T03:04:32.230Z,94897.00
2023-05-11T03:05:32.306Z,94897.00
2023-05-11T03:06:32.354Z,94899.00
2023-05-11T03:07:32.393Z,94887.00
2023-05-11T03:08:32.457Z,94887.00
2023-05-11T03:09:32.508Z,94895.00
2023-05-11T03:10:32.560Z,94897.00
2023-05-11T03:11:32.612Z,94901.00
2023-05-11T03:12:32.699Z,94897.00
2023-05-11T03:13:32.729Z,94895.00
2023-05-11T03:14:32.770Z,94897.00
2023-05-11T03:15:32.811Z,94895.00
2023-05-11T03:16:32.875Z,94887.00
2023-05-11T03:17:32.969Z,94887.00
2023-05-11T03:18:33.000Z,94887.00
2023-05-11T03:19:33.022Z,94895.00
2023-05-11T03:20:33.081Z,94895.00
2023-05-11T03:21:33.148Z,94895.00
2023-05-11T03:22:33.208Z,94895.00
2023-05-11T03:23:33.269Z,94897.00
2023-05-11T03:24:33.283Z,94897.00
2023-05-11T03:25:33.366Z,94897.00
2023-05-11T03:26:33.396Z,94887.00
2023-05-11T03:27:33.465Z,94887.00
2023-05-11T03:28:33.512Z,94885.00
2023-05-11T03:29:33.558Z,94887.00
2023-05-11T03:30:33.630Z,94885.00
2023-05-11T03:31:33.713Z,94883.00
2023-05-11T03:32:33.755Z,94883.00
2023-05-11T03:33:33.795Z,94883.00
2023-05-11T03:34:33.849Z,94883.00
2023-05-11T03:35:33.875Z,94885.00
2023-05-11T03:36:33.947Z,94883.00
2023-05-11T03:37:33.998Z,94883.00
2023-05-11T03:38:34.048Z,94883.00
2023-05-11T03:39:34.096Z,94883.00
2023-05-11T03:40:34.175Z,94880.00
2023-05-11T03:41:34.215Z,94878.00
2023-05-11T03:42:34.244Z,94880.00
2023-05-11T03:43:34.333Z,94881.00
2023-05-11T03:44:34.389Z,94881.00
2023-05-11T03:45:34.445Z,94881.00
2023-05-11T03:46:34.544Z,94880.00
2023-05-11T03:47:34.621Z,94878.00
2023-05-11T03:48:34.601Z,94880.00
2023-05-11T03:49:34.663Z,94878.00
2023-05-11T03:50:34.697Z,94883.00
2023-05-11T03:51:34.771Z,94880.00
2023-05-11T03:52:34.810Z,94881.00
2023-05-11T03:53:34.861Z,94881.00
2023-05-11T03:54:34.928Z,94881.00
2023-05-11T03:55:34.962Z,94880.00
2023-05-11T03:56:35.054Z,94874.00
2023-05-11T03:57:35.121Z,94878.00
2023-05-11T03:58:35.149Z,94876.00
2023-05-11T03:59:35.196Z,94880.00
2023-05-11T04:00:35.296Z,94878.00
2023-05-11T04:01:35.332Z,94878.00
2023-05-11T04:02:35.474Z,94878.00
2023-05-11T04:03:35.604Z,94880.00
2023-05-11T04:04:35.486Z,94878.00
2023-05-11T04:05:35.573Z,94876.00
2023-05-11T04:06:35.603Z,94876.00
2023-05-11T04:07:35.701Z,94878.00
2023-05-11T04:08:35.757Z,94874.00
2023-05-11T04:09:35.801Z,94876.00
2023-05-11T04:10:35.846Z,94874.00
2023-05-11T04:11:35.878Z,94876.00
2023-05-11T04:12:35.957Z,94878.00
2023-05-11T04:13:36.041Z,94878.00
2023-05-11T04:14:36.118Z,94876.00
2023-05-11T04:15:36.129Z,94878.00
2023-05-11T04:16:36.274Z,94878.00
2023-05-11T04:17:36.275Z,94874.00
2023-05-11T04:18:36.316Z,94872.00
2023-05-11T04:19:36.395Z,94874.00
2023-05-11T04:20:36.467Z,94872.00
2023-05-11T04:21:36.497Z,94870.00
2023-05-11T04:22:36.542Z,94870.00
2023-05-11T04:23:36.589Z,94874.00
2023-05-11T04:24:36.671Z,94874.00
2023-05-11T04:25:36.689Z,94876.00
2023-05-11T04:26:36.764Z,94876.00
2023-05-11T04:27:36.843Z,94872.00
2023-05-11T04:28:36.878Z,94874.00
2023-05-11T04:29:36.939Z,94874.00
2023-05-11T04:30:36.992Z,94878.00
2023-05-11T04:31:37.094Z,94880.00
2023-05-11T04:32:37.144Z,94881.00
2023-05-11T04:33:37.174Z,94883.00
2023-05-11T04:34:37.214Z,94887.00
2023-05-11T04:35:37.292Z,94885.00
2023-05-11T04:36:37.342Z,94887.00
2023-05-11T04:37:37.383Z,94895.00
2023-05-11T04:38:37.464Z,94897.00
2023-05-11T04:39:37.536Z,94887.00
2023-05-11T04:40:37.516Z,94887.00
2023-05-11T04:41:37.535Z,94883.00
2023-05-11T04:42:37.586Z,94883.00
2023-05-11T04:43:37.655Z,94880.00
2023-05-11T04:44:37.684Z,94880.00
2023-05-11T04:45:37.729Z,94883.00
2023-05-11T04:46:37.841Z,94887.00
2023-05-11T04:47:37.853Z,94887.00
2023-05-11T04:48:37.827Z,94895.00
2023-05-11T04:49:37.889Z,94895.00
2023-05-11T04:50:37.895Z,94887.00
2023-05-11T04:51:37.968Z,94895.00
2023-05-11T04:52:37.988Z,94885.00
2023-05-11T04:53:38.014Z,94885.00
2023-05-11T04:54:38.013Z,94887.00
2023-05-11T04:55:38.054Z,94897.00
2023-05-11T04:56:38.069Z,94887.00
2023-05-11T04:57:38.085Z,94887.00
2023-05-11T04:58:38.161Z,94895.00
2023-05-11T04:59:38.274Z,94895.00
2023-05-11T05:00:38.156Z,94897.00
2023-05-11T05:01:45.204Z,94895.00
2023-05-11T05:02:38.241Z,94895.00
2023-05-11T05:03:38.298Z,94895.00
2023-05-11T05:04:38.195Z,94901.00
2023-05-11T05:05:38.179Z,94899.00
2023-05-11T05:06:38.165Z,94897.00
2023-05-11T05:07:38.172Z,94901.00
2023-05-11T05:08:38.164Z,94899.00
2023-05-11T05:09:38.133Z,94903.00
2023-05-11T05:10:38.167Z,94903.00
2023-05-11T05:11:38.141Z,94899.00
2023-05-11T05:12:38.148Z,94901.00
2023-05-11T05:13:38.137Z,94903.00
2023-05-11T05:14:38.091Z,94901.00
2023-05-11T05:15:38.123Z,94903.00
2023-05-11T05:16:38.150Z,94903.00
2023-05-11T05:17:38.170Z,94903.00
2023-05-11T05:18:38.131Z,94905.00
2023-05-11T05:19:38.112Z,94905.00
2023-05-11T05:20:38.095Z,94907.00
2023-05-11T05:21:38.041Z,94907.00
2023-05-11T05:22:38.070Z,94905.00
2023-05-11T05:23:38.037Z,94909.00
2023-05-11T05:24:38.060Z,94907.00
2023-05-11T05:25:38.057Z,94913.00
2023-05-11T05:26:38.042Z,94911.00
2023-05-11T05:27:38.006Z,94911.00
2023-05-11T05:28:38.002Z,94913.00
2023-05-11T05:29:38.014Z,94913.00
2023-05-11T05:30:38.087Z,94913.00
2023-05-11T05:31:38.405Z,94913.00
2023-05-11T05:32:38.125Z,94911.00
2023-05-11T05:33:37.976Z,94911.00
2023-05-11T05:34:38.009Z,94911.00
2023-05-11T05:35:38.423Z,94915.00
2023-05-11T05:36:37.959Z,94913.00
2023-05-11T05:37:37.990Z,94911.00
2023-05-11T05:38:37.977Z,94917.00
2023-05-11T05:39:37.963Z,94915.00
2023-05-11T05:40:37.966Z,94913.00
2023-05-11T05:41:38.411Z,94915.00
2023-05-11T05:42:37.933Z,94917.00
2023-05-11T05:43:37.916Z,94915.00
2023-05-11T05:44:37.931Z,94915.00
2023-05-11T05:45:46.364Z,94915.00
2023-05-11T05:46:38.563Z,94915.00
2023-05-11T05:47:38.103Z,94915.00
2023-05-11T05:48:38.073Z,94915.00
2023-05-11T05:49:38.111Z,94919.00
2023-05-11T05:50:38.103Z,94917.00
2023-05-11T05:51:38.440Z,94919.00
2023-05-11T05:52:38.156Z,94917.00
2023-05-11T05:53:38.099Z,94921.00
2023-05-11T05:54:38.152Z,94921.00
2023-05-11T05:55:38.153Z,94919.00
2023-05-11T05:56:38.225Z,94921.00
2023-05-11T05:57:38.277Z,94923.00
2023-05-11T05:58:38.310Z,94921.00
2023-05-11T05:59:38.368Z,94923.00
2023-05-11T06:00:38.350Z,94926.00
2023-05-11T06:01:38.430Z,94925.00
2023-05-11T06:02:38.431Z,94925.00
2023-05-11T06:03:38.574Z,94928.00
2023-05-11T06:04:38.465Z,94926.00
2023-05-11T06:05:38.469Z,94930.00
2023-05-11T06:06:38.943Z,94930.00
2023-05-11T06:07:38.529Z,94926.00
2023-05-11T06:08:38.611Z,94930.00
2023-05-11T06:09:39.275Z,94928.00
2023-05-11T06:10:38.954Z,94930.00
2023-05-11T06:11:38.751Z,94926.00
2023-05-11T06:12:38.698Z,94923.00
2023-05-11T06:13:38.779Z,94928.00
2023-05-11T06:14:38.767Z,94926.00
2023-05-11T06:15:40.406Z,94928.00
2023-05-11T06:16:38.862Z,94926.00
2023-05-11T06:17:38.785Z,94928.00
2023-05-11T06:18:38.852Z,94930.00
2023-05-11T06:19:38.780Z,94926.00
2023-05-11T06:20:38.751Z,94928.00
2023-05-11T06:21:38.702Z,94925.00
2023-05-11T06:22:38.702Z,94930.00
2023-05-11T06:23:38.680Z,94930.00
2023-05-11T06:24:38.730Z,94930.00
2023-05-11T06:25:38.699Z,94928.00
2023-05-11T06:26:38.738Z,94928.00
2023-05-11T06:27:38.690Z,94925.00
2023-05-11T06:28:38.713Z,94926.00
2023-05-11T06:29:38.675Z,94930.00
2023-05-11T06:30:38.665Z,94930.00
2023-05-11T06:31:38.706Z,94930.00
2023-05-11T06:32:38.694Z,94928.00
2023-05-11T06:33:38.636Z,94932.00
2023-05-11T06:34:38.637Z,94934.00
2023-05-11T06:35:38.661Z,94932.00
2023-05-11T06:36:38.645Z,94930.00
2023-05-11T06:37:38.623Z,94932.00
2023-05-11T06:38:38.568Z,94932.00
2023-05-11T06:39:38.631Z,94926.00
2023-05-11T06:40:38.608Z,94925.00
2023-05-11T06:41:38.683Z,94928.00
2023-05-11T06:42:38.978Z,94926.00
2023-05-11T06:43:38.612Z,94928.00
2023-05-11T06:44:38.617Z,94930.00
2023-05-11T06:45:38.595Z,94932.00
2023-05-11T06:46:38.581Z,94926.00
2023-05-11T06:47:38.629Z,94923.00
2023-05-11T06:48:38.533Z,94928.00
2023-05-11T06:49:38.545Z,94928.00
2023-05-11T06:50:38.574Z,94928.00
2023-05-11T06:51:38.533Z,94932.00
2023-05-11T06:52:38.512Z,94932.00
2023-05-11T06:53:38.492Z,94930.00
2023-05-11T06:54:38.486Z,94930.00
2023-05-11T06:55:38.501Z,94932.00
2023-05-11T06:56:38.546Z,94930.00
2023-05-11T06:57:38.527Z,94934.00
2023-05-11T06:58:38.473Z,94934.00
2023-05-11T06:59:38.461Z,94932.00
2023-05-11T07:00:38.424Z,94934.00
2023-05-11T07:01:39.016Z,94934.00
2023-05-11T07:02:38.533Z,94930.00
2023-05-11T07:03:38.415Z,94932.00
2023-05-11T07:04:38.501Z,94930.00
2023-05-11T07:05:38.428Z,94932.00
2023-05-11T07:06:38.412Z,94932.00
2023-05-11T07:07:38.473Z,94930.00
2023-05-11T07:08:38.385Z,94928.00
2023-05-11T07:09:39.429Z,94932.00
2023-05-11T07:10:38.363Z,94930.00
2023-05-11T07:11:38.392Z,94928.00
2023-05-11T07:12:38.454Z,94928.00
2023-05-11T07:13:38.342Z,94928.00
2023-05-11T07:14:38.368Z,94928.00
2023-05-11T07:15:38.363Z,94928.00
2023-05-11T07:16:38.401Z,94926.00
2023-05-11T07:17:38.386Z,94926.00
2023-05-11T07:18:38.366Z,94926.00
2023-05-11T07:19:38.304Z,94928.00
2023-05-11T07:20:38.347Z,94928.00
2023-05-11T07:21:38.309Z,94926.00
2023-05-11T07:22:38.322Z,94926.00
2023-05-11T07:23:38.292Z,94926.00
2023-05-11T07:24:38.285Z,94926.00
2023-05-11T07:25:38.323Z,94925.00
2023-05-11T07:26:38.256Z,94928.00
2023-05-11T07:27:38.265Z,94925.00
2023-05-11T07:28:38.298Z,94930.00
2023-05-11T07:29:38.352Z,94930.00
2023-05-11T07:30:38.417Z,94926.00
2023-05-11T07:31:38.517Z,94925.00
2023-05-11T07:32:38.504Z,94926.00
2023-05-11T07:33:38.672Z,94925.00
2023-05-11T07:34:38.551Z,94926.00
2023-05-11T07:35:38.597Z,94925.00
2023-05-11T07:36:38.605Z,94926.00
2023-05-11T07:37:38.978Z,94930.00
2023-05-11T07:38:38.707Z,94926.00
2023-05-11T07:39:38.697Z,94925.00
2023-05-11T07:40:38.738Z,94923.00
2023-05-11T07:41:38.742Z,94925.00
2023-05-11T07:42:38.984Z,94917.00
2023-05-11T07:43:38.782Z,94917.00
2023-05-11T07:44:38.866Z,94925.00
2023-05-11T07:45:38.901Z,94923.00
2023-05-11T07:46:39.004Z,94923.00
2023-05-11T07:47:39.049Z,94926.00
2023-05-11T07:48:39.054Z,94921.00
2023-05-11T07:49:43.444Z,94921.00
2023-05-11T07:50:39.988Z,94923.00
2023-05-11T07:51:38.977Z,94926.00
2023-05-11T07:52:38.965Z,94925.00
2023-05-11T07:53:38.995Z,94926.00
2023-05-11T07:54:38.975Z,94926.00
2023-05-11T07:55:38.982Z,94926.00
2023-05-11T07:56:39.003Z,94923.00
2023-05-11T07:57:38.963Z,94926.00
2023-05-11T07:58:38.972Z,94925.00
2023-05-11T07:59:38.966Z,94925.00
2023-05-11T08:00:38.951Z,94926.00
2023-05-11T08:01:39.065Z,94926.00
2023-05-11T08:02:38.978Z,94928.00
2023-05-11T08:03:38.933Z,94928.00
2023-05-11T08:04:38.945Z,94926.00
2023-05-11T08:05:39.028Z,94925.00
2023-05-11T08:06:39.046Z,94923.00
2023-05-11T08:07:41.222Z,94925.00
2023-05-11T08:08:39.529Z,94926.00
2023-05-11T08:09:39.371Z,94923.00
2023-05-11T08:10:40.008Z,94923.00
2023-05-11T08:11:39.497Z,94923.00
2023-05-11T08:12:39.549Z,94923.00
2023-05-11T08:13:39.581Z,94925.00
2023-05-11T08:14:39.621Z,94925.00
2023-05-11T08:15:39.658Z,94926.00
2023-05-11T08:16:39.796Z,94923.00
2023-05-11T08:17:39.773Z,94926.00
2023-05-11T08:18:39.844Z,94926.00
2023-05-11T08:19:39.826Z,94925.00
2023-05-11T08:20:39.935Z,94923.00
2023-05-11T08:21:39.887Z,94925.00
2023-05-11T08:22:39.958Z,94923.00
2023-05-11T08:23:40.003Z,94925.00
2023-05-11T08:24:40.002Z,94926.00
2023-05-11T08:25:40.087Z,94926.00
2023-05-11T08:26:40.097Z,94926.00
2023-05-11T08:27:40.123Z,94923.00
2023-05-11T08:28:40.198Z,94926.00
2023-05-11T08:29:40.279Z,94925.00
2023-05-11T08:30:40.221Z,94925.00
2023-05-11T08:31:40.478Z,94925.00
2023-05-11T08:33:40.559Z,94925.00
2023-05-11T08:34:40.418Z,94925.00
2023-05-11T08:35:40.292Z,94926.00
2023-05-11T08:36:40.271Z,94923.00
2023-05-11T08:37:40.246Z,94921.00
2023-05-11T08:38:40.294Z,94917.00
2023-05-11T08:39:47.314Z,94919.00
2023-05-11T08:40:41.252Z,94919.00
2023-05-11T08:41:40.216Z,94919.00
2023-05-11T08:42:40.221Z,94917.00
2023-05-11T08:43:40.251Z,94917.00
2023-05-11T08:44:40.231Z,94917.00
2023-05-11T08:45:40.989Z,94919.00
2023-05-11T08:46:40.194Z,94919.00
2023-05-11T08:47:40.234Z,94915.00
2023-05-11T08:48:40.505Z,94917.00
2023-05-11T08:49:40.178Z,94917.00
2023-05-11T08:50:40.144Z,94915.00
2023-05-11T08:51:40.152Z,94917.00
2023-05-11T08:52:40.170Z,94917.00
2023-05-11T08:53:40.166Z,94915.00
2023-05-11T08:54:40.146Z,94919.00
2023-05-11T08:55:40.119Z,94919.00
2023-05-11T08:56:40.132Z,94921.00
2023-05-11T08:57:40.158Z,94919.00
2023-05-11T08:58:40.093Z,94921.00
2023-05-11T08:59:40.114Z,94921.00
2023-05-11T09:00:40.125Z,94923.00
2023-05-11T09:01:40.245Z,94919.00
2023-05-11T09:02:40.166Z,94917.00
2023-05-11T09:03:40.164Z,94921.00
2023-05-11T09:04:40.187Z,94917.00
2023-05-11T09:05:40.277Z,94917.00
2023-05-11T09:06:40.657Z,94917.00
2023-05-11T09:07:40.438Z,94917.00
2023-05-11T09:08:40.419Z,94913.00
2023-05-11T09:09:40.413Z,94913.00
2023-05-11T09:10:40.475Z,94915.00
2023-05-11T09:11:40.456Z,94915.00
2023-05-11T09:12:40.485Z,94911.00
2023-05-11T09:13:40.553Z,94913.00
2023-05-11T09:14:40.532Z,94915.00
2023-05-11T09:15:40.807Z,94913.00
2023-05-11T09:16:40.596Z,94911.00
2023-05-11T09:17:40.592Z,94913.00
2023-05-11T09:18:40.641Z,94913.00
2023-05-11T09:19:40.564Z,94911.00
2023-05-11T09:20:40.591Z,94909.00
2023-05-11T09:21:40.667Z,94905.00
2023-05-11T09:22:40.725Z,94907.00
2023-05-11T09:23:40.727Z,94907.00
2023-05-11T09:24:40.763Z,94909.00
2023-05-11T09:25:40.782Z,94909.00
2023-05-11T09:26:40.745Z,94905.00
2023-05-11T09:27:41.695Z,94907.00
2023-05-11T09:28:46.189Z,94907.00
2023-05-11T09:29:41.761Z,94905.00
2023-05-11T09:30:40.745Z,94905.00
2023-05-11T09:31:40.775Z,94905.00
2023-05-11T09:32:40.866Z,94905.00
2023-05-11T09:33:40.733Z,94901.00
2023-05-11T09:34:43.342Z,94901.00
2023-05-11T09:35:40.716Z,94901.00
2023-05-11T09:36:40.712Z,94905.00
2023-05-11T09:37:40.742Z,94907.00
2023-05-11T09:38:40.689Z,94905.00
2023-05-11T09:39:52.766Z,94905.00
2023-05-11T09:40:41.658Z,94905.00
2023-05-11T09:41:40.687Z,94907.00
2023-05-11T09:42:40.663Z,94909.00
2023-05-11T09:43:41.063Z,94905.00
2023-05-11T09:44:40.630Z,94905.00
2023-05-11T09:45:40.660Z,94905.00
2023-05-11T09:46:40.708Z,94907.00
2023-05-11T09:47:40.726Z,94905.00
2023-05-11T09:48:40.621Z,94905.00
2023-05-11T09:49:40.623Z,94907.00
2023-05-11T09:50:40.593Z,94905.00
2023-05-11T09:51:40.652Z,94907.00
2023-05-11T09:52:40.574Z,94907.00
2023-05-11T09:53:40.609Z,94905.00
2023-05-11T09:54:41.024Z,94905.00
2023-05-11T09:55:40.685Z,94903.00
2023-05-11T09:56:40.721Z,94911.00
2023-05-11T09:57:40.828Z,94907.00
2023-05-11T09:58:40.880Z,94907.00
2023-05-11T09:59:40.934Z,94905.00
2023-05-11T10:00:41.017Z,94905.00
2023-05-11T10:01:41.102Z,94907.00
2023-05-11T10:02:41.232Z,94905.00
2023-05-11T10:03:41.239Z,94903.00
2023-05-11T10:04:41.543Z,94905.00
2023-05-11T10:05:41.248Z,94903.00
2023-05-11T10:06:41.367Z,94903.00
2023-05-11T10:07:41.370Z,94905.00
2023-05-11T10:08:41.425Z,94903.00
2023-05-11T10:09:41.501Z,94901.00
2023-05-11T10:10:41.573Z,94903.00
2023-05-11T10:11:41.593Z,94903.00
2023-05-11T10:12:41.637Z,94903.00
2023-05-11T10:13:41.714Z,94903.00
2023-05-11T10:14:41.758Z,94903.00
2023-05-11T10:15:41.789Z,94903.00
2023-05-11T10:16:41.831Z,94903.00
2023-05-11T10:17:41.893Z,94905.00
2023-05-11T10:18:41.977Z,94905.00
2023-05-11T10:19:41.980Z,94901.00
2023-05-11T10:20:42.033Z,94903.00
2023-05-11T10:21:42.078Z,94897.00
2023-05-11T10:22:42.125Z,94903.00
2023-05-11T10:23:42.130Z,94899.00
2023-05-11T10:24:42.204Z,94901.00
2023-05-11T10:25:42.296Z,94899.00
2023-05-11T10:26:42.289Z,94897.00
2023-05-11T10:27:42.325Z,94897.00
2023-05-11T10:28:42.356Z,94895.00
2023-05-11T10:29:42.537Z,94895.00
2023-05-11T10:30:42.442Z,94887.00
2023-05-11T10:31:42.568Z,94895.00
2023-05-11T10:32:42.606Z,94895.00
2023-05-11T10:33:42.611Z,94895.00
2023-05-11T10:34:43.056Z,94887.00
2023-05-11T10:35:42.721Z,94887.00
2023-05-11T10:36:42.761Z,94881.00
2023-05-11T10:37:42.818Z,94880.00
2023-05-11T10:38:42.824Z,94876.00
2023-05-11T10:39:43.065Z,94874.00
2023-05-11T10:40:42.856Z,94876.00
2023-05-11T10:41:42.899Z,94874.00
2023-05-11T10:42:42.925Z,94874.00
2023-05-11T10:43:42.982Z,94872.00
2023-05-11T10:44:43.106Z,94872.00
2023-05-11T10:45:43.151Z,94872.00
2023-05-11T10:46:43.061Z,94874.00
2023-05-11T10:47:43.154Z,94876.00
2023-05-11T10:48:43.143Z,94874.00
2023-05-11T10:49:43.144Z,94872.00
2023-05-11T10:50:43.520Z,94870.00
2023-05-11T10:51:43.142Z,94874.00
2023-05-11T10:52:43.174Z,94872.00
2023-05-11T10:53:43.210Z,94872.00
2023-05-11T10:54:43.566Z,94872.00
2023-05-11T10:55:44.752Z,94872.00
2023-05-11T10:56:43.343Z,94874.00
2023-05-11T10:57:43.353Z,94874.00
2023-05-11T10:58:43.330Z,94868.00
2023-05-11T10:59:43.611Z,94870.00
2023-05-11T11:00:43.359Z,94868.00
2023-05-11T11:01:43.436Z,94872.00
2023-05-11T11:02:44.096Z,94872.00
2023-05-11T11:03:43.281Z,94870.00
2023-05-11T11:04:43.296Z,94870.00
2023-05-11T11:05:43.367Z,94868.00
2023-05-11T11:06:43.396Z,94872.00
2023-05-11T11:07:43.257Z,94868.00
2023-05-11T11:08:43.241Z,94868.00
2023-05-11T11:09:43.301Z,94866.00
2023-05-11T11:10:43.228Z,94866.00
2023-05-11T11:11:43.200Z,94868.00
2023-05-11T11:12:43.243Z,94866.00
2023-05-11T11:13:43.267Z,94864.00
2023-05-11T11:14:43.250Z,94864.00
2023-05-11T11:15:43.196Z,94862.00
2023-05-11T11:16:43.202Z,94860.00
2023-05-11T11:17:43.215Z,94864.00
2023-05-11T11:18:43.224Z,94866.00
2023-05-11T11:19:43.189Z,94864.00
2023-05-11T11:20:43.153Z,94862.00
2023-05-11T11:21:43.252Z,94862.00
2023-05-11T11:22:43.186Z,94862.00
2023-05-11T11:23:43.170Z,94862.00
2023-05-11T11:24:43.175Z,94860.00
2023-05-11T11:25:43.587Z,94860.00
2023-05-11T11:26:43.132Z,94858.00
2023-05-11T11:27:43.239Z,94854.00
2023-05-11T11:28:43.156Z,94850.00
2023-05-11T11:29:43.090Z,94850.00
2023-05-11T11:30:43.641Z,94852.00
2023-05-11T11:31:43.209Z,94850.00
2023-05-11T11:33:43.073Z,94852.00
2023-05-11T11:34:43.039Z,94852.00
2023-05-11T11:35:43.267Z,94848.00
2023-05-11T11:36:43.045Z,94848.00
2023-05-11T11:37:43.117Z,94846.00
2023-05-11T11:38:43.069Z,94844.00
2023-05-11T11:39:43.138Z,94844.00
2023-05-11T11:41:43.141Z,94842.00
2023-05-11T11:42:43.133Z,94842.00
2023-05-11T11:43:43.150Z,94840.00
2023-05-11T11:44:43.122Z,94844.00
2023-05-11T11:45:43.152Z,94842.00
2023-05-11T11:46:43.186Z,94838.00
2023-05-11T11:47:43.131Z,94838.00